AirNav   Air Wisconsin Up To $57,000 Bonus
 
 1586 users online  

58AK Fairview East Airport
Wasilla, Alaska, USA

GOING TO WASILLA?


FAA INFORMATION EFFECTIVE 07 OCTOBER 2021

Location

FAA Identifier: 58AK
Lat/Long: 61-33-09.3200N 149-20-22.7800W
61-33.155333N 149-20.379667W
61.5525889,-149.3396611
(estimated)
Elevation: 100 ft. / 30 m (estimated)
Variation: 23E (2000)
From city: 4 miles SE of WASILLA, AK
Time zone: UTC -8 (UTC -9 during Standard Time)
Zip code: 99654

Airport Operations

Airport use: Private use. Permission required prior to landing
Activation date: 07/2002
Control tower: no
ARTCC: ANCHORAGE CENTER
FSS: KENAI FLIGHT SERVICE STATION [907-283-7211]
Attendance: UNATNDD
Wind indicator: yes
Segmented circle: no

Airport Communications

CTAF/UNICOM: 122.8
WX AWOS-3P at IYS (6 nm W): 135.25 (907-373-3801)
WX ASOS at PAQ (8 nm E): 134.75 (907-746-6675)
WX AWOS-3P at BCV (10 nm SW): 135.55 (907-688-0826)
WX ASOS at FRN (19 nm SW): 134.25

Nearby radio navigation aids

VOR radial/distance  VOR name  Freq  Var
BGQr074/18.0BIG LAKE VORTAC112.5019E
TEDr020/29.2ANCHORAGE VOR/DME113.1518E

Airport Services

Runway Information

Runway 6/24

Dimensions: 3578 x 150 ft. / 1091 x 46 m
Surface: turf
Operational restrictions: RY VERY WET IN SPRING
RUNWAY 6  RUNWAY 24
Traffic pattern: leftleft
Obstructions: trees, 75 ft. from runwaytrees, 75 ft. from runway

Airport Ownership and Management from official FAA records

Ownership: Privately-owned
Owner: FAIRVIEW EAST
PO BOX 870948
WASILLA, AK 99687
Phone 907-376-5265
FAX: 907-376-7966
Manager: B.H. TILTON
PO BOX 870948
WASILLA, AK 99687
Phone 907-376-5265

Airport Operational Statistics

Aircraft based on the field: 6
Single engine airplanes: 6
    

Instrument Procedures

There are no published instrument procedures at 58AK.

Some nearby airports with instrument procedures:

PAWS - Wasilla Airport (6 nm W)
PAAQ - Warren "Bud" Woods Palmer Municipal Airport (8 nm E)
PAGQ - Big Lake Airport (14 nm W)
PAFR - Bryant Army Airfield Heliport (19 nm SW)
PAED - Elmendorf Air Force Base (23 nm SW)
 
Loc | Ops | Rwys | IFR | FBO | Links
Com | Nav | Svcs | Stats | Notes

Crowley
 
Area around 58AK (Fairview East Airport)
 
Road maps at: MapQuest Bing Google
 
Aerial photo
No photo
 
Sectional chart

 
Airport distance calculator
Flying to Fairview East Airport? Find the distance to fly.

From to 58AK

Sunrise and sunset
Times for 19-Oct-2021
 Local
(UTC-8)
 Zulu
(UTC)
Morning civil twilight08:0816:08
Sunrise08:5316:53
Sunset18:3202:32
Evening civil twilight19:1703:17

Current date and time
Zulu (UTC)  19-Oct-2021 15:23:48
Local (UTC-8)  19-Oct-2021 07:23:48
 
METAR
PAAQ 
8nm E 
191453Z AUTO 00000KT 10SM SCT075 OVC090 01/M02 A2935 RMK AO2 SLP942 T00111022 56024 TSNO
PABV 
10nm SW 
191456Z AUTO 18005KT 10SM OVC080 01/M02 A2938 RMK AO2 SLP953 T00111022 58024 FZRANO
PAFR 
19nm SW 
191458Z AUTO 03003KT 10SM FEW047 BKN060 OVC070 M00/M02 A2932 RMK AO2 SLP937 T10051018 57024 PNO FZRANO $
TAF
PAAQ 
8nm E 
191140Z 1912/2012 36006KT P6SM BKN080 FM191500 34004KT P6SM VCSH BKN035 OVC080 FM192000 05010KT P6SM BKN060 FM200000 05012KT P6SM -RA BKN040
NOTAMs
Click for the latest NOTAMs
NOTAMs are issued by the DoD/FAA and will open in a separate window not controlled by AirNav.

 

 
 

Would you like to see your business listed on this page?

 If your business provides an interesting product or service to pilots, flight crews, aircraft, or users of the Fairview East Airport, you should consider listing it here.  To start the listing process, click on the button below
 
Add a business
 

Other Pages about Fairview East Airport

Update a link
 
Copyright © AirNav, LLC. All rights reserved. Privacy Policy  Contact